SBDN/PPB METAR and TAF weather

Enter ICAO airport designator
Station Type Date Time Source
SBDN METAR 2019/12/14 11:00 UTC NOAA

SBDN 141100Z 10008G18KT 9999 FEW005 BKN100 23/19 Q1017


Station Type Date Time Source
SBDN Decoded METAR 2019/12/14 11:00 UTC NOAA

Presidente Prudente, Brazil (SBDN) 22-07S 051-23W
Dec 14, 2019 - 06:00 AM EST / 2019.12.14 1100 UTC
Wind: from the E (100 degrees) at 9 MPH (8 KT) gusting to 21 MPH (18 KT):0
Visibility: greater than 7 mile(s):0
Sky conditions: mostly cloudy
Temperature: 73 F (23 C)
Dew Point: 66 F (19 C)
Relative Humidity: 78%
Pressure (altimeter): 30.03 in. Hg (1017 hPa)
ob: SBDN 141100Z 10008G18KT 9999 FEW005 BKN100 23/19 Q1017
cycle: 11

Station Type Date Time Source
SBDN TAF 2019/12/14 06:33 UTC NOAA

TAF SBDN 140200Z 1406/1418 11010KT 9999 SCT040 TN21/1408Z TX31/1418Z
BECMG 1412/1414 06008KT
RMK PEL

Example: see airport list